Latest Weather Observations for Nowra

IDN60901

Issued at 9:35 pm EST Thursday 31 July 2014 (issued every 10 minutes, with the page automatically refreshed every 10 minutes)

About weather observations | Map of Canberra area stations | Latest observations for Canberra area | Other Formats
Station Details ID: 068072 Name: NOWRA RAN AIR STATION AWS Lat: -34.95 Lon: 150.54 Height: 109.0 m
Data from the previous 72 hours. | See also: Recent months at Nowra
Date/Time
EST
Tmp

°C
App
Tmp
°C
Dew
Point
°C
Rel
Hum
%
Delta-T

°C
Wind Press
QNH
hPa
Press
MSL
hPa
Rain
since
9 am
mm
Dir
 
Spd
km/h
Gust
km/h
Spd
kts
Gust
kts
31/09:30pm 19.2 12.9 -0.7 26 8.7 NNW 22 43 12 23 1003.5 - 0.0
31/09:00pm 18.5 13.2 -0.3 28 8.2 NNW 17 30 9 16 1002.9 1003.0 0.0
31/08:30pm 19.0 13.7 -0.4 27 8.5 NNW 17 28 9 15 1002.9 - 0.0
31/08:00pm 19.2 12.6 -0.2 27 8.5 NNW 24 37 13 20 1002.4 - 0.0
31/07:30pm 19.6 13.1 0.1 27 8.6 NNW 24 44 13 24 1002.6 - 0.0
31/07:00pm 19.9 12.6 -0.1 26 8.9 NNW 28 52 15 28 1002.7 - 0.0
31/06:30pm 20.3 12.2 -0.3 25 9.1 NNW 32 50 17 27 1002.9 - 0.0
31/06:00pm 20.2 13.1 -1.0 24 9.3 NNW 26 44 14 24 1002.7 1002.8 0.0
31/05:33pm 20.8 11.9 -1.7 22 9.7 NW 35 56 19 30 1002.8 - 0.0
31/05:30pm 20.9 12.4 -1.6 22 9.8 NW 33 50 18 27 1002.8 - 0.0
31/05:00pm 21.4 12.5 -1.8 21 10.1 NW 35 61 19 33 1003.1 - 0.0
31/04:30pm 21.9 13.0 -2.0 20 10.4 NNW 35 65 19 35 1003.0 - 0.0
31/04:00pm 22.3 14.2 -0.4 22 10.2 NNW 32 52 17 28 1002.9 - 0.0
31/03:30pm 22.6 13.1 -0.8 21 10.5 NW 39 59 21 32 1003.4 - 0.0
31/03:00pm 22.6 14.4 -0.8 21 10.5 NW 32 50 17 27 1003.9 1003.9 0.0
31/02:30pm 22.7 14.3 -0.7 21 10.5 NW 33 54 18 29 1004.4 - 0.0
31/02:10pm 23.1 14.9 -1.1 20 10.8 NW 32 50 17 27 1004.5 - 0.0
31/02:00pm 23.0 14.8 -1.1 20 10.7 NW 32 48 17 26 1004.7 - 0.0
31/01:30pm 22.7 12.4 -1.4 20 10.6 WNW 43 63 23 34 1005.5 - 0.0
31/01:00pm 22.8 12.3 -1.3 20 10.7 WNW 44 65 24 35 1006.0 - 0.0
31/12:29pm 22.3 10.4 -0.4 22 10.2 NW 52 65 28 35 1006.8 - 0.0
31/12:06pm 22.2 11.5 0.1 23 10.0 WNW 46 67 25 36 1007.4 - 0.0
31/12:00pm 22.2 12.9 0.7 24 9.9 NW 39 61 21 33 1007.5 1007.5 0.0
31/11:38am 22.2 14.7 1.3 25 9.7 NW 30 48 16 26 1008.1 - 0.0
31/11:30am 21.9 13.1 1.5 26 9.5 NW 37 48 20 26 1008.5 - 0.0
31/11:00am 21.0 11.0 1.3 27 9.0 NW 43 67 23 36 1009.2 - 0.0
31/10:30am 20.7 11.6 2.0 29 8.7 NW 39 59 21 32 1009.8 - 0.0
31/10:27am 20.4 11.3 1.8 29 8.6 NW 39 59 21 32 1010.0 - 0.0
31/10:00am 19.8 14.3 3.9 35 7.6 N 22 32 12 17 1010.4 - 0.0
31/09:30am 18.5 12.9 3.2 36 7.2 NNW 22 37 12 20 1010.8 - 0.0
31/09:00am 17.7 11.4 3.6 39 6.6 NNW 26 41 14 22 1011.2 1011.3 0.0
31/08:30am 16.8 11.6 3.8 42 6.1 NNW 20 30 11 16 1011.4 - 0.0
31/08:00am 16.0 11.5 4.1 45 5.6 NNW 17 24 9 13 1011.5 - 0.0
31/07:30am 15.4 11.3 4.2 47 5.2 NNW 15 24 8 13 1011.6 - 0.0
31/07:00am 14.6 10.9 4.3 50 4.8 NNW 13 17 7 9 1011.6 - 0.0
31/06:30am 14.6 10.9 4.6 51 4.7 NNW 13 20 7 11 1011.7 - 0.0
31/06:00am 14.6 11.0 4.9 52 4.6 N 13 17 7 9 1011.7 1011.8 0.0
31/05:30am 14.6 10.6 5.1 53 4.5 N 15 20 8 11 1011.8 - 0.0
31/05:00am 15.3 11.0 5.2 51 4.8 N 17 26 9 14 1011.8 - 0.0
31/04:30am 15.1 10.9 5.6 53 4.5 NNW 17 30 9 16 1012.0 - 0.0
31/04:00am 15.9 10.8 5.8 51 4.9 NNW 22 30 12 16 1012.3 - 0.0
31/03:45am 16.1 10.2 5.7 50 5.0 NNW 26 35 14 19 1012.4 - 0.0
31/03:30am 16.1 7.0 6.0 51 4.9 WNW 43 61 23 33 1012.1 - 0.0
31/03:00am 16.4 7.2 6.2 51 5.0 WNW 44 65 24 35 1011.0 1011.1 0.0
31/02:52am 16.3 7.6 6.2 51 4.9 WNW 41 50 22 27 1011.4 - 0.0
31/02:30am 16.1 10.7 6.3 52 4.8 N 24 39 13 21 1011.9 - 0.0
31/02:08am 16.8 10.2 6.0 49 5.3 NNW 30 48 16 26 1012.2 - 0.0
31/02:00am 16.9 10.3 6.1 49 5.3 NNW 30 37 16 20 1012.4 - 0.0
31/01:30am 16.9 10.0 6.4 50 5.2 WNW 32 48 17 26 1012.4 - 0.0
31/01:00am 16.7 10.6 6.5 51 5.0 NW 28 48 15 26 1012.6 - 0.0
31/12:48am 16.9 10.8 6.7 51 5.1 NW 28 46 15 25 1012.7 - 0.0
31/12:30am 16.8 11.5 6.6 51 5.0 NW 24 39 13 21 1013.1 - 0.0
31/12:00am 15.5 11.6 7.0 57 4.2 NW 17 24 9 13 1013.7 1013.7 0.0
 
Date/Time
EST
Tmp

°C
App
Tmp
°C
Dew
Point
°C
Rel
Hum
%
Delta-T

°C
Wind Press
QNH
hPa
Press
MSL
hPa
Rain
since
9 am
mm
Dir
 
Spd
km/h
Gust
km/h
Spd
kts
Gust
kts
30/11:30pm 14.1 11.5 7.6 65 3.2 N 11 15 6 8 1014.0 - 0.0
30/11:00pm 13.9 11.2 7.4 65 3.2 N 11 15 6 8 1014.2 - 0.0
30/10:30pm 14.3 11.7 7.6 64 3.3 N 11 17 6 9 1014.6 - 0.0
30/10:00pm 15.3 12.4 8.1 62 3.6 N 13 17 7 9 1014.9 - 0.0
30/09:30pm 15.1 12.4 7.4 60 3.8 N 11 15 6 8 1015.0 - 0.0
30/09:00pm 16.4 13.8 7.6 56 4.4 N 11 19 6 10 1015.1 1015.1 0.0
30/08:30pm 17.1 14.1 7.5 53 4.8 NNW 13 19 7 10 1015.2 - 0.0
30/08:00pm 17.3 13.8 7.4 52 5.0 NNW 15 22 8 12 1015.4 - 0.0
30/07:30pm 17.2 13.7 7.3 52 5.0 NW 15 19 8 10 1015.7 - 0.0
30/07:00pm 17.0 13.1 7.1 52 5.0 NW 17 26 9 14 1015.4 - 0.0
30/06:30pm 17.4 12.6 7.2 51 5.1 NW 22 35 12 19 1015.1 - 0.0
30/06:00pm 17.6 12.7 7.1 50 5.3 WNW 22 32 12 17 1015.0 1015.0 0.0
30/05:30pm 18.1 12.0 6.6 47 5.7 WNW 28 43 15 23 1014.6 - 0.0
30/05:00pm 18.2 13.6 6.4 46 5.9 WNW 20 30 11 16 1014.4 - 0.0
30/04:43pm 18.3 12.1 6.2 45 6.0 WNW 28 46 15 25 1014.2 - 0.0
30/04:30pm 18.6 13.1 6.1 44 6.2 WNW 24 37 13 20 1013.9 - 0.0
30/04:00pm 19.2 14.1 6.0 42 6.6 WNW 22 35 12 19 1013.8 - 0.0
30/03:53pm 19.3 13.1 6.1 42 6.6 WNW 28 46 15 25 1013.9 - 0.0
30/03:30pm 19.2 13.3 5.6 41 6.7 WNW 26 41 14 22 1014.0 - 0.0
30/03:00pm 18.9 11.0 6.4 44 6.2 WNW 37 52 20 28 1013.9 1013.9 0.0
30/02:30pm 19.2 12.1 6.3 43 6.4 WNW 33 52 18 28 1013.8 - 0.0
30/02:00pm 19.4 11.9 6.2 42 6.6 WNW 35 56 19 30 1014.1 - 0.0
30/01:30pm 20.0 13.0 6.0 40 7.0 WNW 32 52 17 28 1014.0 - 0.0
30/01:09pm 20.0 12.7 5.6 39 7.1 WNW 33 52 18 28 1014.2 - 0.0
30/01:00pm 19.9 13.4 6.6 42 6.7 WNW 30 44 16 24 1014.3 - 0.0
30/12:30pm 20.1 12.6 6.4 41 6.9 WNW 35 50 19 27 1014.7 - 0.0
30/12:00pm 19.0 10.4 6.5 44 6.3 WNW 41 59 22 32 1015.1 1015.1 0.0
30/11:40am 19.3 11.9 6.8 44 6.3 WNW 35 54 19 29 1015.4 - 0.0
30/11:30am 19.5 11.7 6.6 43 6.5 WNW 37 52 20 28 1015.5 - 0.0
30/11:05am 19.9 12.6 7.0 43 6.6 WNW 35 54 19 29 1015.8 - 0.0
30/11:00am 20.3 13.0 7.3 43 6.7 W 35 44 19 24 1015.9 - 0.0
30/10:47am 19.5 13.5 6.9 44 6.4 NW 28 43 15 23 1016.0 - 0.0
30/10:30am 19.1 15.2 7.2 46 6.1 W 17 24 9 13 1016.1 - 0.0
30/10:00am 18.9 14.1 7.4 47 5.9 WNW 22 30 12 16 1016.3 - 0.0
30/09:30am 18.1 14.7 7.5 50 5.4 WNW 15 22 8 12 1016.1 - 0.0
30/09:00am 17.5 14.4 7.3 51 5.1 NW 13 15 7 8 1016.1 1016.1 0.0
30/08:30am 17.1 13.2 6.9 51 5.1 NW 17 30 9 16 1016.1 - 0.0
30/08:00am 16.8 13.9 6.6 51 5.0 NW 11 24 6 13 1015.8 - 0.0
30/07:30am 16.2 12.2 6.6 53 4.7 WNW 17 28 9 15 1015.5 - 0.0
30/07:00am 15.5 10.9 6.5 55 4.4 WNW 20 35 11 19 1015.2 - 0.0
30/06:30am 15.3 8.2 6.3 55 4.4 WNW 33 54 18 29 1013.8 - 0.0
30/06:00am 15.5 6.5 6.2 54 4.5 WNW 43 65 23 35 1013.8 1013.8 0.0
30/05:30am 15.3 5.7 6.1 54 4.5 WNW 46 69 25 37 1013.6 - 0.0
30/05:00am 15.3 6.0 5.8 53 4.6 WNW 44 69 24 37 1013.3 - 0.0
30/04:30am 15.3 5.5 5.5 52 4.7 W 46 65 25 35 1013.6 - 0.0
30/04:00am 15.6 4.3 5.2 50 5.0 WNW 54 74 29 40 1013.1 - 0.0
30/03:30am 15.7 5.0 4.7 48 5.2 WNW 50 74 27 40 1012.8 - 0.0
30/03:00am 16.1 5.0 4.5 46 5.5 WNW 52 74 28 40 1012.7 1012.8 0.0
30/02:30am 16.2 7.0 3.6 43 5.8 WNW 41 65 22 35 1012.9 - 0.0
30/02:21am 16.2 7.3 3.3 42 5.9 WNW 39 57 21 31 1013.1 - 0.0
30/02:00am 16.5 8.0 3.2 41 6.1 WNW 37 48 20 26 1013.4 - 0.0
30/01:30am 16.8 8.2 2.4 38 6.5 WNW 37 52 20 28 1013.8 - 0.0
30/01:00am 17.2 8.5 2.0 36 6.9 WNW 37 57 20 31 1013.8 - 0.0
30/12:34am 17.4 10.0 1.8 35 7.0 WNW 30 48 16 26 1013.7 - 0.0
30/12:30am 17.6 9.6 1.6 34 7.2 WNW 33 48 18 26 1013.7 - 0.0
30/12:19am 17.5 10.5 1.9 35 7.0 WNW 28 48 15 26 1013.7 - 0.0
30/12:00am 17.7 11.5 2.1 35 7.1 WNW 24 37 13 20 1013.6 1013.6 0.0
 
Date/Time
EST
Tmp

°C
App
Tmp
°C
Dew
Point
°C
Rel
Hum
%
Delta-T

°C
Wind Press
QNH
hPa
Press
MSL
hPa
Rain
since
9 am
mm
Dir
 
Spd
km/h
Gust
km/h
Spd
kts
Gust
kts
29/11:30pm 18.1 11.9 2.0 34 7.3 W 24 43 13 23 1013.9 - 0.0
29/11:00pm 18.2 12.5 2.9 36 7.1 WNW 22 41 12 22 1013.6 - 0.0
29/10:42pm 18.3 10.7 3.0 36 7.1 W 32 50 17 27 1013.6 - 0.0
29/10:40pm 18.3 10.2 3.4 37 7.0 W 35 50 19 27 1013.7 - 0.0
29/10:30pm 17.7 14.1 3.2 38 6.7 W 11 22 6 12 1013.6 - 0.0
29/10:00pm 18.0 12.7 3.1 37 6.9 WNW 20 35 11 19 1013.3 - 0.0
29/09:40pm 18.4 11.7 3.5 37 7.0 NW 28 52 15 28 1012.8 - 0.0
29/09:30pm 17.8 13.1 3.3 38 6.8 WNW 17 26 9 14 1012.8 - 0.0
29/09:17pm 18.3 11.6 3.4 37 7.0 WNW 28 52 15 28 1012.8 - 0.0
29/09:00pm 17.7 12.8 3.9 40 6.5 W 19 28 10 15 1013.0 1013.1 0.0
29/08:30pm 17.1 13.3 3.8 41 6.2 NW 13 30 7 16 1013.1 - 0.0
29/08:00pm 17.0 13.6 4.0 42 6.1 NW 11 19 6 10 1013.5 - 0.0
29/07:30pm 17.2 13.0 3.8 41 6.3 WNW 15 28 8 15 1013.4 - 0.0
29/07:00pm 17.5 13.3 3.8 40 6.4 NW 15 24 8 13 1013.4 - 0.0
29/06:30pm 17.8 12.7 4.0 40 6.5 WNW 20 33 11 18 1013.4 - 0.0
29/06:00pm 18.5 11.8 3.6 37 7.0 WNW 28 43 15 23 1013.0 1013.1 0.0
29/05:30pm 18.6 13.3 2.9 35 7.3 WNW 20 28 11 15 1012.8 - 0.0
29/05:00pm 19.5 10.9 2.4 32 7.9 WNW 37 61 20 33 1012.7 - 0.0
29/04:30pm 20.1 14.7 1.5 29 8.5 W 19 26 10 14 1012.0 - 0.0
29/04:00pm 20.7 11.5 1.1 27 8.9 WNW 39 59 21 32 1012.0 - 0.0
29/03:30pm 20.8 12.0 1.1 27 9.0 WNW 37 61 20 33 1011.5 - 0.0
29/03:12pm 21.1 13.1 1.4 27 9.1 WNW 33 57 18 31 1011.5 - 0.0
29/03:00pm 21.3 12.5 1.6 27 9.1 WNW 37 54 20 29 1011.5 1011.6 0.0
29/02:30pm 21.3 11.1 1.0 26 9.3 WNW 44 69 24 37 1011.6 - 0.0
29/02:00pm 21.9 13.4 1.0 25 9.6 W 35 56 19 30 1010.8 - 0.0
29/01:30pm 21.7 12.8 0.8 25 9.6 WNW 37 59 20 32 1011.4 - 0.0
29/01:00pm 21.8 12.6 1.5 26 9.4 W 39 59 21 32 1011.9 - 0.0
29/12:30pm 21.8 14.7 1.5 26 9.4 W 28 46 15 25 1012.3 - 0.0
29/12:00pm 21.3 12.7 0.5 25 9.4 W 35 - 19 - - 1013.5 -
29/11:58am 21.5 13.6 1.2 26 9.3 W 32 50 17 27 1013.4 - 0.0
29/11:38am 20.9 10.6 0.2 25 9.3 WNW 44 65 24 35 1013.7 - 0.0
29/11:33am 20.9 10.8 0.2 25 9.3 NW 43 54 23 29 1013.4 - 0.0
29/11:30am 21.1 11.1 0.9 26 9.2 W 43 61 23 33 1013.4 - 0.0
29/11:14am 20.8 13.6 0.6 26 9.1 W 28 56 15 30 1013.9 - 0.0
29/11:00am 19.6 16.6 0.6 28 8.5 NE 6 17 3 9 1014.2 - 0.0
29/10:30am 19.1 14.9 1.6 31 8.0 N 13 19 7 10 1014.3 - 0.0
29/10:00am 17.7 13.6 2.1 35 7.1 N 13 19 7 10 1014.8 - 0.0
29/09:30am 16.0 13.0 2.1 39 6.2 N 7 9 4 5 1015.5 - 0.0
29/09:00am 14.8 13.5 3.9 48 5.0 CALM 0 0 0 0 1015.5 1015.5 0.0
29/08:30am 11.1 8.9 5.4 68 2.6 WNW 6 9 3 5 1015.5 - 0.0
29/08:00am 11.3 8.6 2.9 56 3.7 N 6 7 3 4 1015.6 - 0.0
29/07:30am 12.3 9.0 2.5 51 4.3 N 9 13 5 7 1015.8 - 0.0
29/07:00am 12.6 8.5 2.2 49 4.5 N 13 19 7 10 1015.7 - 0.0
29/06:30am 12.7 9.0 2.3 49 4.5 N 11 13 6 7 1015.8 - 0.0
29/06:00am 13.7 9.6 2.0 45 5.1 NNW 13 17 7 9 1015.9 1015.9 0.0
29/05:30am 13.5 7.7 2.4 47 4.9 NW 22 28 12 15 1015.9 - 0.0
29/05:00am 12.6 7.4 2.7 51 4.4 NW 19 24 10 13 1015.9 - 0.0
29/04:30am 13.1 8.0 2.9 50 4.5 WNW 19 20 10 11 1016.2 - 0.0
29/04:00am 14.2 6.9 2.5 45 5.2 WNW 30 39 16 21 1016.0 - 0.0
29/03:45am 13.9 6.7 3.1 48 4.9 WNW 30 35 16 19 1015.4 - 0.0
29/03:30am 10.9 7.8 3.7 61 3.2 WNW 9 11 5 6 1015.5 - 0.0
29/03:00am 12.1 9.1 3.9 57 3.7 NNW 9 13 5 7 1015.6 1015.6 0.0
29/02:30am 13.3 9.1 3.7 52 4.4 NNW 15 20 8 11 1015.7 - 0.0
29/02:00am 13.5 7.9 3.6 51 4.5 NW 22 32 12 17 1016.0 - 0.0
29/01:30am 13.6 9.0 3.7 51 4.5 WNW 17 28 9 15 1015.9 - 0.0
29/01:00am 12.9 10.3 4.1 55 4.0 NW 7 13 4 7 1016.3 - 0.0
29/12:30am 12.1 8.8 4.6 60 3.4 NW 11 19 6 10 1016.3 - 0.0
29/12:00am 11.6 8.7 4.8 63 3.1 NNW 9 13 5 7 1016.8 1016.9 0.0
 
Date/Time
EST
Tmp

°C
App
Tmp
°C
Dew
Point
°C
Rel
Hum
%
Delta-T

°C
Wind Press
QNH
hPa
Press
MSL
hPa
Rain
since
9 am
mm
Dir
 
Spd
km/h
Gust
km/h
Spd
kts
Gust
kts
28/11:30pm 11.5 8.2 4.7 63 3.1 NNE 11 13 6 7 1016.9 - 0.0
28/11:00pm 13.4 10.1 4.3 54 4.2 NNW 11 17 6 9 1017.0 - 0.0
28/10:30pm 13.4 7.3 4.6 55 4.1 WNW 26 32 14 17 1017.1 - 0.0
28/10:00pm 13.5 8.6 4.9 56 4.0 WNW 20 26 11 14 1017.4 - 0.0

Latest Capital City Observations: Canberra | Sydney | Melbourne | Brisbane | Adelaide | Perth | Hobart | Darwin

Other Formats:

Comma delimited format used in spreadsheet applications
http://www.bom.gov.au/fwo/IDN60903/IDN60903.94750.axf

JavaScript Object Notation format (JSON) in row-major order
http://www.bom.gov.au/fwo/IDN60903/IDN60903.94750.json